createdAt,value
2018-12-30T00:01:24.019Z,25.87
2018-12-30T00:03:55.162Z,21.97
2018-12-30T00:06:26.620Z,22.20
2018-12-30T00:08:57.785Z,20.53
2018-12-30T00:11:28.899Z,17.83
2018-12-30T00:13:59.983Z,25.00
2018-12-30T00:16:30.979Z,24.13
2018-12-30T00:19:02.158Z,25.43
2018-12-30T00:21:33.154Z,21.27
2018-12-30T00:24:04.725Z,20.40
2018-12-30T00:26:35.569Z,20.03
2018-12-30T00:29:06.609Z,18.97
2018-12-30T00:31:39.796Z,24.30
2018-12-30T00:34:10.993Z,17.03
2018-12-30T00:36:42.002Z,19.97
2018-12-30T00:39:13.542Z,23.23
2018-12-30T00:41:44.553Z,22.60
2018-12-30T00:44:15.554Z,19.33
2018-12-30T00:46:46.646Z,22.03
2018-12-30T00:49:17.739Z,21.83
2018-12-30T00:51:49.037Z,17.27
2018-12-30T00:54:20.306Z,23.13
2018-12-30T00:56:51.338Z,20.43
2018-12-30T00:59:22.385Z,22.40
2018-12-30T01:01:53.510Z,18.70
2018-12-30T01:04:24.669Z,18.70
2018-12-30T01:06:55.693Z,19.17
2018-12-30T01:09:26.786Z,22.17
2018-12-30T01:11:57.777Z,15.80
2018-12-30T01:14:28.857Z,17.63
2018-12-30T01:16:59.954Z,18.77
2018-12-30T01:19:30.935Z,15.60
2018-12-30T01:22:01.938Z,17.23
2018-12-30T01:24:33.082Z,17.70
2018-12-30T01:27:04.325Z,16.10
2018-12-30T01:29:35.297Z,16.43
2018-12-30T01:32:06.449Z,13.73
2018-12-30T01:34:37.998Z,15.10
2018-12-30T01:37:09.113Z,20.13
2018-12-30T01:39:40.270Z,17.17
2018-12-30T01:42:11.282Z,16.73
2018-12-30T01:44:42.273Z,17.43
2018-12-30T01:47:13.378Z,14.90
2018-12-30T01:49:44.565Z,16.17
2018-12-30T01:52:15.558Z,16.80
2018-12-30T01:54:46.833Z,12.83
2018-12-30T01:57:17.842Z,18.50
2018-12-30T01:59:48.817Z,16.40
2018-12-30T02:02:19.814Z,17.53
2018-12-30T02:04:51.154Z,13.60
2018-12-30T02:07:22.110Z,11.83
2018-12-30T02:09:53.190Z,14.93
2018-12-30T02:12:24.397Z,13.07
2018-12-30T02:14:55.377Z,14.87
2018-12-30T02:17:26.274Z,11.00
2018-12-30T02:19:57.254Z,12.80
2018-12-30T02:22:28.147Z,13.13
2018-12-30T02:25:01.074Z,16.63
2018-12-30T02:27:31.913Z,17.47
2018-12-30T02:30:03.689Z,19.80
2018-12-30T02:32:35.590Z,12.33
2018-12-30T02:35:06.775Z,12.37
2018-12-30T02:37:37.786Z,14.90
2018-12-30T02:40:09.035Z,13.80
2018-12-30T02:42:39.953Z,14.83
2018-12-30T02:45:10.946Z,10.40
2018-12-30T02:47:42.079Z,13.60
2018-12-30T02:50:13.330Z,11.03
2018-12-30T02:52:44.430Z,14.30
2018-12-30T02:55:17.046Z,14.83
2018-12-30T02:57:48.054Z,10.70
2018-12-30T03:00:19.361Z,12.17
2018-12-30T03:02:50.443Z,11.07
2018-12-30T03:05:21.742Z,13.40
2018-12-30T03:07:52.721Z,11.57
2018-12-30T03:10:23.969Z,13.83
2018-12-30T03:12:54.907Z,9.80
2018-12-30T03:15:26.000Z,11.43
2018-12-30T03:17:57.141Z,16.40
2018-12-30T03:20:28.170Z,12.00
2018-12-30T03:22:59.281Z,11.30
2018-12-30T03:25:30.362Z,10.13
2018-12-30T03:28:01.366Z,12.30
2018-12-30T03:30:32.427Z,11.20
2018-12-30T03:33:03.445Z,11.13
2018-12-30T03:35:34.533Z,9.13
2018-12-30T03:38:05.321Z,14.20
2018-12-30T03:40:36.641Z,13.30
2018-12-30T03:43:07.711Z,11.60
2018-12-30T03:45:38.880Z,13.60
2018-12-30T03:48:09.786Z,10.10
2018-12-30T03:50:40.771Z,8.60
2018-12-30T03:53:11.770Z,7.33
2018-12-30T03:55:42.973Z,12.37
2018-12-30T03:58:13.942Z,9.87
2018-12-30T04:00:44.855Z,9.53
2018-12-30T04:03:15.830Z,9.53
2018-12-30T04:05:47.146Z,10.07
2018-12-30T04:08:18.118Z,11.47
2018-12-30T04:10:49.373Z,9.23
2018-12-30T04:13:20.409Z,10.17
2018-12-30T04:15:51.401Z,8.67
2018-12-30T04:18:22.379Z,10.97
2018-12-30T04:20:53.374Z,12.00
2018-12-30T04:23:24.478Z,7.50
2018-12-30T04:25:55.470Z,7.63
2018-12-30T04:28:26.335Z,9.50
2018-12-30T04:30:57.222Z,9.63
2018-12-30T04:33:28.243Z,8.93
2018-12-30T04:35:59.411Z,8.90
2018-12-30T04:38:30.412Z,9.60
2018-12-30T04:41:01.400Z,7.77
2018-12-30T04:43:32.265Z,10.40
2018-12-30T04:46:03.275Z,10.40
2018-12-30T04:48:34.370Z,10.50
2018-12-30T04:51:05.354Z,7.40
2018-12-30T04:53:36.336Z,8.53
2018-12-30T04:56:07.427Z,8.10
2018-12-30T04:58:38.535Z,7.13
2018-12-30T05:01:10.341Z,9.70
2018-12-30T05:03:41.435Z,11.43
2018-12-30T05:06:12.426Z,9.10
2018-12-30T05:08:43.309Z,7.73
2018-12-30T05:11:14.374Z,10.13
2018-12-30T05:13:45.501Z,10.00
2018-12-30T05:16:18.092Z,9.80
2018-12-30T05:18:49.105Z,8.50
2018-12-30T05:21:19.999Z,10.13
2018-12-30T05:23:50.990Z,8.07
2018-12-30T05:26:22.086Z,10.60
2018-12-30T05:28:53.073Z,8.60
2018-12-30T05:31:24.986Z,9.17
2018-12-30T05:33:56.067Z,9.83
2018-12-30T05:36:27.062Z,7.33
2018-12-30T05:38:58.063Z,9.57
2018-12-30T05:41:29.141Z,5.83
2018-12-30T05:44:00.139Z,11.00
2018-12-30T05:46:31.201Z,9.20
2018-12-30T05:49:02.226Z,8.27
2018-12-30T05:51:33.205Z,10.73
2018-12-30T05:54:05.210Z,9.47
2018-12-30T05:56:36.499Z,11.50
2018-12-30T05:59:07.498Z,8.87
2018-12-30T06:01:39.314Z,9.90
2018-12-30T06:04:10.418Z,10.43
2018-12-30T06:06:41.498Z,7.77
2018-12-30T06:09:12.490Z,10.63
2018-12-30T06:11:43.756Z,11.20
2018-12-30T06:14:14.569Z,8.43
2018-12-30T06:16:45.642Z,9.07
2018-12-30T06:19:16.550Z,8.83
2018-12-30T06:21:47.459Z,9.80
2018-12-30T06:24:18.534Z,9.30
2018-12-30T06:26:49.605Z,8.37
2018-12-30T06:29:20.609Z,6.73
2018-12-30T06:31:51.622Z,10.30
2018-12-30T06:34:22.590Z,8.27
2018-12-30T06:36:53.605Z,8.70
2018-12-30T06:39:24.565Z,13.30
2018-12-30T06:41:55.561Z,11.27
2018-12-30T06:44:26.572Z,9.90
2018-12-30T06:46:57.550Z,8.57
2018-12-30T06:49:28.638Z,8.57
2018-12-30T06:51:59.649Z,8.63
2018-12-30T06:54:30.497Z,9.00
2018-12-30T06:57:01.756Z,8.13
2018-12-30T06:59:32.901Z,8.47
2018-12-30T07:02:04.030Z,8.60
2018-12-30T07:04:34.874Z,9.77
2018-12-30T07:07:05.769Z,9.47
2018-12-30T07:09:36.691Z,9.53
2018-12-30T07:12:07.754Z,9.30
2018-12-30T07:14:38.743Z,9.27
2018-12-30T07:17:09.638Z,8.10
2018-12-30T07:19:40.505Z,9.60
2018-12-30T07:22:11.866Z,8.03
2018-12-30T07:24:42.918Z,8.83
2018-12-30T07:27:14.941Z,10.77
2018-12-30T07:29:45.910Z,9.80
2018-12-30T07:32:16.898Z,12.13
2018-12-30T07:34:47.887Z,11.57
2018-12-30T07:37:18.788Z,12.67
2018-12-30T07:39:49.873Z,11.30
2018-12-30T07:42:21.214Z,10.90
2018-12-30T07:44:51.937Z,9.47
2018-12-30T07:47:23.971Z,12.07
2018-12-30T07:49:54.873Z,11.23
2018-12-30T07:52:25.827Z,10.50
2018-12-30T07:54:56.934Z,9.97
2018-12-30T07:57:28.054Z,10.70
2018-12-30T07:59:59.114Z,8.80
2018-12-30T08:02:30.414Z,8.07
2018-12-30T08:05:01.414Z,8.90
2018-12-30T08:07:32.474Z,10.10
2018-12-30T08:10:03.454Z,8.63
2018-12-30T08:12:35.710Z,8.83
2018-12-30T08:15:06.810Z,8.37
2018-12-30T08:17:37.869Z,8.87
2018-12-30T08:20:09.089Z,11.73
2018-12-30T08:22:41.634Z,9.87
2018-12-30T08:25:12.505Z,8.40
2018-12-30T08:27:43.477Z,10.97
2018-12-30T08:30:14.586Z,9.80
2018-12-30T08:32:46.398Z,9.70
2018-12-30T08:35:17.490Z,11.43
2018-12-30T08:37:48.574Z,9.70
2018-12-30T08:40:21.416Z,8.37
2018-12-30T08:42:52.738Z,8.50
2018-12-30T08:45:23.798Z,9.70
2018-12-30T08:47:55.146Z,9.10
2018-12-30T08:50:25.996Z,13.17
2018-12-30T08:52:56.863Z,8.73
2018-12-30T08:55:27.865Z,11.10
2018-12-30T08:57:59.039Z,15.13
2018-12-30T09:00:30.029Z,8.27
2018-12-30T09:03:01.026Z,9.63
2018-12-30T09:05:32.130Z,10.80
2018-12-30T09:08:03.414Z,9.77
2018-12-30T09:10:34.310Z,11.90
2018-12-30T09:13:05.458Z,17.40
2018-12-30T09:15:36.294Z,10.80
2018-12-30T09:18:07.279Z,12.77
2018-12-30T09:20:39.306Z,13.53
2018-12-30T09:23:11.305Z,12.67
2018-12-30T09:25:42.303Z,9.30
2018-12-30T09:28:13.379Z,9.20
2018-12-30T09:30:44.386Z,9.90
2018-12-30T09:33:15.366Z,9.87
2018-12-30T09:35:46.254Z,12.97
2018-12-30T09:38:17.337Z,8.87
2018-12-30T09:40:48.445Z,8.03
2018-12-30T09:43:19.550Z,8.90
2018-12-30T09:45:50.537Z,10.77
2018-12-30T09:48:21.406Z,8.70
2018-12-30T09:50:52.734Z,8.57
2018-12-30T09:53:23.902Z,11.10
2018-12-30T09:55:54.794Z,10.00
2018-12-30T09:58:25.678Z,8.80
2018-12-30T10:00:56.774Z,13.10
2018-12-30T10:03:27.974Z,11.10
2018-12-30T10:05:58.946Z,9.37
2018-12-30T10:08:30.028Z,9.30
2018-12-30T10:11:01.142Z,11.57
2018-12-30T10:13:32.378Z,11.80
2018-12-30T10:16:03.458Z,9.77
2018-12-30T10:18:34.626Z,8.80
2018-12-30T10:21:05.518Z,11.60
2018-12-30T10:23:36.403Z,11.87
2018-12-30T10:26:08.519Z,10.73
2018-12-30T10:28:39.506Z,7.70
2018-12-30T10:31:10.483Z,8.60
2018-12-30T10:33:41.539Z,8.97
2018-12-30T10:36:12.462Z,8.17
2018-12-30T10:38:43.675Z,8.50
2018-12-30T10:41:14.646Z,10.97
2018-12-30T10:43:45.651Z,6.43
2018-12-30T10:46:16.742Z,9.67
2018-12-30T10:48:49.013Z,7.87
2018-12-30T10:51:19.961Z,8.47
2018-12-30T10:53:51.042Z,6.17
2018-12-30T10:56:21.917Z,9.37
2018-12-30T10:58:52.927Z,24.47
2018-12-30T11:01:24.009Z,13.10
2018-12-30T11:03:55.286Z,9.77
2018-12-30T11:06:26.293Z,6.60
2018-12-30T11:08:57.374Z,8.10
2018-12-30T11:11:28.481Z,8.40
2018-12-30T11:13:59.500Z,9.60
2018-12-30T11:16:30.461Z,15.90
2018-12-30T11:19:01.454Z,14.13
2018-12-30T11:21:32.550Z,9.80
2018-12-30T11:24:08.453Z,11.90
2018-12-30T11:26:36.157Z,10.00
2018-12-30T11:29:07.160Z,10.37
2018-12-30T11:31:38.250Z,18.80
2018-12-30T11:34:09.314Z,12.60
2018-12-30T11:36:40.331Z,12.93
2018-12-30T11:39:11.422Z,13.10
2018-12-30T11:41:42.513Z,13.50
2018-12-30T11:44:13.758Z,10.37
2018-12-30T11:46:44.689Z,17.80
2018-12-30T11:49:15.701Z,16.63
2018-12-30T11:51:46.710Z,11.87
2018-12-30T11:54:17.762Z,12.73
2018-12-30T11:56:48.363Z,30.97
2018-12-30T11:59:19.686Z,13.27
2018-12-30T12:01:50.830Z,10.20
2018-12-30T12:04:22.686Z,9.93
2018-12-30T12:06:53.625Z,7.53
2018-12-30T12:09:24.688Z,6.53
2018-12-30T12:11:55.826Z,11.00
2018-12-30T12:14:27.058Z,8.43
2018-12-30T12:16:57.998Z,11.00
2018-12-30T12:19:29.186Z,11.20
2018-12-30T12:22:00.209Z,7.23
2018-12-30T12:24:31.174Z,8.57
2018-12-30T12:27:02.170Z,10.70
2018-12-30T12:29:33.489Z,8.63
2018-12-30T12:32:04.462Z,9.83
2018-12-30T12:34:35.794Z,7.83
2018-12-30T12:37:06.838Z,8.00
2018-12-30T12:39:38.130Z,7.57
2018-12-30T12:42:09.035Z,7.73
2018-12-30T12:44:40.010Z,11.47
2018-12-30T12:47:11.006Z,7.20
2018-12-30T12:49:42.229Z,7.13
2018-12-30T12:52:13.303Z,9.27
2018-12-30T12:54:44.278Z,8.03
2018-12-30T12:57:15.265Z,7.80
2018-12-30T12:59:46.406Z,6.23
2018-12-30T13:02:17.362Z,5.77
2018-12-30T13:04:48.446Z,7.50
2018-12-30T13:07:19.351Z,6.70
2018-12-30T13:09:50.452Z,8.63
2018-12-30T13:12:21.322Z,10.57
2018-12-30T13:14:52.498Z,7.60
2018-12-30T13:17:23.402Z,8.90
2018-12-30T13:19:54.614Z,7.60
2018-12-30T13:22:25.660Z,7.60
2018-12-30T13:24:56.673Z,8.37
2018-12-30T13:27:27.703Z,8.70
2018-12-30T13:29:59.678Z,11.50
2018-12-30T13:32:30.678Z,10.20
2018-12-30T13:35:02.372Z,7.87
2018-12-30T13:37:33.469Z,7.87
2018-12-30T13:40:04.751Z,8.10
2018-12-30T13:42:35.648Z,10.73
2018-12-30T13:45:06.724Z,9.10
2018-12-30T13:47:37.842Z,9.07
2018-12-30T13:50:09.282Z,13.17
2018-12-30T13:52:40.538Z,8.97
2018-12-30T13:55:11.619Z,8.37
2018-12-30T13:57:42.613Z,8.13
2018-12-30T14:00:13.783Z,5.47
2018-12-30T14:02:44.713Z,6.03
2018-12-30T14:05:15.865Z,5.27
2018-12-30T14:07:46.787Z,6.43
2018-12-30T14:10:17.714Z,7.67
2018-12-30T14:12:48.566Z,9.20
2018-12-30T14:15:20.495Z,6.60
2018-12-30T14:17:51.497Z,7.30
2018-12-30T14:20:22.527Z,8.33
2018-12-30T14:22:53.546Z,6.30
2018-12-30T14:25:24.755Z,7.80
2018-12-30T14:27:55.727Z,7.17
2018-12-30T14:30:26.957Z,6.63
2018-12-30T14:32:58.020Z,5.77
2018-12-30T14:35:29.917Z,7.20
2018-12-30T14:38:01.075Z,7.23
2018-12-30T14:40:32.006Z,7.47
2018-12-30T14:43:02.901Z,8.33
2018-12-30T14:45:33.774Z,8.47
2018-12-30T14:48:05.020Z,10.63
2018-12-30T14:50:36.401Z,8.13
2018-12-30T14:53:07.350Z,8.70
2018-12-30T14:55:38.440Z,8.27
2018-12-30T14:58:10.257Z,7.10
2018-12-30T15:00:41.348Z,5.83
2018-12-30T15:03:12.459Z,8.93
2018-12-30T15:05:44.572Z,7.50
2018-12-30T15:08:15.562Z,7.10
2018-12-30T15:10:46.650Z,6.37
2018-12-30T15:13:17.742Z,6.80
2018-12-30T15:15:48.729Z,8.50
2018-12-30T15:18:19.726Z,6.20
2018-12-30T15:20:51.071Z,7.40
2018-12-30T15:23:21.906Z,5.20
2018-12-30T15:25:52.984Z,13.07
2018-12-30T15:28:23.882Z,10.73
2018-12-30T15:30:54.875Z,6.73
2018-12-30T15:33:25.857Z,9.30
2018-12-30T15:35:56.958Z,17.70
2018-12-30T15:38:28.055Z,5.97
2018-12-30T15:40:59.058Z,11.77
2018-12-30T15:43:29.913Z,7.23
2018-12-30T15:46:01.267Z,8.30
2018-12-30T15:48:32.215Z,7.30
2018-12-30T15:51:03.423Z,6.67
2018-12-30T15:53:34.390Z,7.87
2018-12-30T15:56:05.390Z,9.77
2018-12-30T15:58:36.482Z,5.93
2018-12-30T16:01:07.667Z,6.43
2018-12-30T16:03:38.699Z,10.70
2018-12-30T16:06:09.706Z,7.87
2018-12-30T16:08:40.746Z,9.63
2018-12-30T16:11:11.990Z,15.30
2018-12-30T16:13:42.830Z,9.13
2018-12-30T16:16:13.899Z,8.00
2018-12-30T16:18:45.023Z,8.33
2018-12-30T16:21:16.117Z,11.40
2018-12-30T16:23:46.980Z,6.10
2018-12-30T16:26:18.038Z,9.77
2018-12-30T16:28:49.078Z,10.30
2018-12-30T16:31:27.886Z,10.10
2018-12-30T16:33:52.790Z,10.80
2018-12-30T16:36:24.398Z,9.50
2018-12-30T16:38:56.518Z,13.33
2018-12-30T16:41:27.590Z,11.63
2018-12-30T16:43:58.604Z,10.57
2018-12-30T16:46:29.589Z,8.40
2018-12-30T16:49:00.574Z,9.77
2018-12-30T16:51:31.734Z,9.90
2018-12-30T16:54:02.766Z,10.20
2018-12-30T16:56:33.834Z,10.60
2018-12-30T16:59:04.866Z,12.13
2018-12-30T17:01:35.920Z,13.17
2018-12-30T17:04:07.238Z,13.13
2018-12-30T17:06:39.030Z,15.37
2018-12-30T17:09:10.346Z,13.00
2018-12-30T17:11:41.330Z,13.93
2018-12-30T17:14:12.430Z,11.40
2018-12-30T17:16:43.426Z,10.87
2018-12-30T17:19:14.510Z,13.37
2018-12-30T17:21:45.579Z,12.87
2018-12-30T17:24:16.594Z,14.80
2018-12-30T17:26:47.661Z,13.50
2018-12-30T17:29:18.665Z,14.40
2018-12-30T17:31:49.763Z,11.47
2018-12-30T17:34:20.857Z,12.80
2018-12-30T17:36:52.100Z,11.70
2018-12-30T17:39:23.042Z,12.43
2018-12-30T17:41:53.822Z,17.23
2018-12-30T17:44:24.927Z,16.83
2018-12-30T17:46:56.106Z,14.13
2018-12-30T17:49:27.093Z,12.00
2018-12-30T17:51:57.982Z,11.67
2018-12-30T17:54:29.088Z,13.83
2018-12-30T17:57:00.017Z,18.23
2018-12-30T17:59:31.066Z,12.90
2018-12-30T18:02:01.941Z,9.83
2018-12-30T18:04:32.985Z,11.20
2018-12-30T18:07:04.226Z,10.10
2018-12-30T18:09:35.218Z,10.33
2018-12-30T18:12:06.284Z,9.67
2018-12-30T18:14:37.339Z,13.67
2018-12-30T18:17:08.483Z,10.93
2018-12-30T18:19:39.513Z,11.40
2018-12-30T18:22:10.737Z,10.77
2018-12-30T18:24:41.986Z,9.03
2018-12-30T18:27:12.875Z,11.60
2018-12-30T18:29:43.854Z,11.37
2018-12-30T18:32:14.846Z,11.23
2018-12-30T18:34:45.943Z,12.00
2018-12-30T18:37:17.662Z,13.40
2018-12-30T18:39:48.764Z,13.03
2018-12-30T18:42:19.838Z,13.90
2018-12-30T18:44:51.856Z,10.97
2018-12-30T18:47:22.930Z,22.20
2018-12-30T18:49:54.135Z,11.50
2018-12-30T18:52:25.123Z,9.83
2018-12-30T18:54:56.321Z,11.50
2018-12-30T18:57:27.329Z,8.93
2018-12-30T18:59:58.407Z,13.97
2018-12-30T19:02:29.587Z,10.93
2018-12-30T19:05:00.485Z,13.27
2018-12-30T19:07:31.549Z,10.83
2018-12-30T19:10:02.681Z,12.20
2018-12-30T19:12:34.681Z,17.40
2018-12-30T19:15:06.291Z,11.60
2018-12-30T19:17:37.477Z,9.60
2018-12-30T19:20:08.678Z,10.90
2018-12-30T19:22:39.681Z,12.10
2018-12-30T19:25:10.541Z,13.10
2018-12-30T19:27:41.538Z,13.83
2018-12-30T19:30:12.633Z,13.23
2018-12-30T19:32:43.741Z,15.10
2018-12-30T19:35:14.751Z,14.30
2018-12-30T19:37:45.763Z,16.50
2018-12-30T19:40:16.696Z,11.43
2018-12-30T19:42:47.776Z,9.17
2018-12-30T19:45:18.818Z,11.47
2018-12-30T19:47:49.879Z,10.97
2018-12-30T19:50:20.863Z,12.00
2018-12-30T19:52:52.192Z,14.27
2018-12-30T19:55:23.394Z,11.50
2018-12-30T19:57:54.509Z,18.07
2018-12-30T20:00:25.471Z,17.13
2018-12-30T20:02:56.649Z,19.17
2018-12-30T20:05:27.781Z,11.70
2018-12-30T20:07:59.175Z,12.10
2018-12-30T20:10:30.109Z,9.27
2018-12-30T20:13:08.737Z,18.30
2018-12-30T20:15:33.878Z,13.83
2018-12-30T20:18:05.030Z,11.10
2018-12-30T20:20:36.118Z,9.83
2018-12-30T20:23:07.298Z,12.10
2018-12-30T20:25:38.406Z,12.40
2018-12-30T20:28:09.493Z,12.97
2018-12-30T20:30:40.490Z,8.90
2018-12-30T20:33:11.641Z,12.90
2018-12-30T20:35:42.669Z,10.57
2018-12-30T20:38:15.535Z,10.27
2018-12-30T20:40:46.498Z,10.50
2018-12-30T20:43:17.579Z,9.80
2018-12-30T20:45:48.721Z,14.40
2018-12-30T20:48:20.060Z,15.60
2018-12-30T20:50:51.062Z,11.93
2018-12-30T20:53:21.865Z,12.27
2018-12-30T20:55:52.828Z,10.40
2018-12-30T20:58:25.121Z,14.37
2018-12-30T21:00:56.158Z,11.50
2018-12-30T21:03:27.334Z,11.77
2018-12-30T21:05:58.345Z,11.37
2018-12-30T21:08:29.444Z,15.27
2018-12-30T21:11:00.574Z,14.23
2018-12-30T21:13:31.686Z,14.27
2018-12-30T21:16:02.718Z,11.60
2018-12-30T21:18:33.904Z,12.10
2018-12-30T21:21:04.998Z,12.83
2018-12-30T21:23:35.982Z,11.63
2018-12-30T21:26:06.982Z,11.30
2018-12-30T21:28:38.150Z,12.00
2018-12-30T21:31:09.867Z,12.77
2018-12-30T21:33:40.970Z,13.30
2018-12-30T21:36:11.963Z,13.83
2018-12-30T21:38:43.050Z,16.00
2018-12-30T21:41:18.168Z,33.33
2018-12-30T21:43:49.502Z,36.30
2018-12-30T21:46:20.633Z,26.63
2018-12-30T21:48:51.738Z,26.43
2018-12-30T21:51:22.633Z,17.07
2018-12-30T21:53:53.698Z,13.03
2018-12-30T21:56:24.493Z,15.57
2018-12-30T21:58:55.584Z,16.83
2018-12-30T22:01:26.589Z,13.70
2018-12-30T22:03:57.894Z,12.00
2018-12-30T22:06:28.867Z,10.37
2018-12-30T22:09:01.781Z,15.23
2018-12-30T22:11:34.422Z,12.50
2018-12-30T22:14:05.714Z,13.00
2018-12-30T22:16:36.709Z,11.27
2018-12-30T22:19:07.959Z,11.87
2018-12-30T22:21:38.996Z,12.90
2018-12-30T22:24:10.239Z,14.27
2018-12-30T22:26:41.170Z,13.33
2018-12-30T22:29:12.172Z,14.60
2018-12-30T22:31:43.266Z,14.13
2018-12-30T22:34:14.353Z,12.83
2018-12-30T22:36:45.327Z,12.97
2018-12-30T22:39:16.334Z,12.70
2018-12-30T22:41:47.422Z,11.97
2018-12-30T22:44:18.626Z,11.40
2018-12-30T22:46:49.530Z,11.87
2018-12-30T22:49:20.622Z,11.30
2018-12-30T22:51:51.592Z,11.50
2018-12-30T22:54:22.684Z,14.33
2018-12-30T22:56:53.702Z,13.43
2018-12-30T22:59:24.857Z,10.20
2018-12-30T23:01:55.960Z,11.93
2018-12-30T23:04:26.950Z,12.90
2018-12-30T23:06:57.989Z,14.57
2018-12-30T23:09:29.471Z,16.47
2018-12-30T23:12:01.663Z,12.30
2018-12-30T23:14:32.842Z,13.30
2018-12-30T23:17:03.841Z,13.90
2018-12-30T23:19:34.931Z,15.57
2018-12-30T23:22:06.029Z,17.07
2018-12-30T23:24:37.113Z,13.03
2018-12-30T23:27:08.216Z,12.33
2018-12-30T23:29:39.285Z,13.37
2018-12-30T23:32:10.286Z,11.40
2018-12-30T23:34:41.418Z,12.20
2018-12-30T23:37:12.479Z,13.90
2018-12-30T23:39:44.571Z,13.20
2018-12-30T23:42:15.586Z,13.77
2018-12-30T23:44:46.697Z,16.10
2018-12-30T23:47:17.674Z,15.40
2018-12-30T23:49:48.840Z,14.50
2018-12-30T23:52:19.854Z,14.33
2018-12-30T23:54:50.952Z,16.07
2018-12-30T23:57:21.971Z,14.60
2018-12-30T23:59:53.102Z,15.43
